createdAt,value
2023-04-18T00:01:44.517Z,5.43
2023-04-18T00:04:12.208Z,5.42
2023-04-18T00:06:39.346Z,5.35
2023-04-18T00:09:06.257Z,5.32
2023-04-18T00:11:32.943Z,5.23
2023-04-18T00:13:59.544Z,5.20
2023-04-18T00:16:28.315Z,5.15
2023-04-18T00:18:55.490Z,5.12
2023-04-18T00:21:22.720Z,5.08
2023-04-18T00:23:49.448Z,5.06
2023-04-18T00:26:16.098Z,5.05
2023-04-18T00:28:42.798Z,5.05
2023-04-18T00:31:09.592Z,5.00
2023-04-18T00:33:36.337Z,4.98
2023-04-18T00:36:03.420Z,4.97
2023-04-18T00:38:30.049Z,4.94
2023-04-18T00:40:56.672Z,4.95
2023-04-18T00:43:26.866Z,4.94
2023-04-18T00:45:54.102Z,4.89
2023-04-18T00:48:21.035Z,4.87
2023-04-18T00:50:47.676Z,4.84
2023-04-18T00:53:15.528Z,4.82
2023-04-18T00:55:42.284Z,4.82
2023-04-18T00:58:09.380Z,4.83
2023-04-18T01:00:36.264Z,4.81
2023-04-18T01:03:03.257Z,4.78
2023-04-18T01:05:30.148Z,4.72
2023-04-18T01:08:01.054Z,4.70
2023-04-18T01:10:29.185Z,4.68
2023-04-18T01:13:12.829Z,4.61
2023-04-18T01:15:44.583Z,4.60
2023-04-18T01:18:11.985Z,4.59
2023-04-18T01:20:42.490Z,4.62
2023-04-18T01:23:10.629Z,4.60
2023-04-18T01:25:37.577Z,4.58
2023-04-18T01:28:04.712Z,4.58
2023-04-18T01:30:31.350Z,4.54
2023-04-18T01:32:58.034Z,4.51
2023-04-18T01:35:24.664Z,4.50
2023-04-18T01:37:51.397Z,4.48
2023-04-18T01:40:18.162Z,4.47
2023-04-18T01:42:44.879Z,4.49
2023-04-18T01:45:12.513Z,4.55
2023-04-18T01:47:39.447Z,4.55
2023-04-18T01:50:06.576Z,4.51
2023-04-18T01:52:33.262Z,4.52
2023-04-18T01:55:02.146Z,4.49
2023-04-18T01:57:29.011Z,4.48
2023-04-18T01:59:55.647Z,4.44
2023-04-18T02:02:22.382Z,4.42
2023-04-18T02:04:49.130Z,4.43
2023-04-18T02:07:15.783Z,4.41
2023-04-18T02:09:42.380Z,4.44
2023-04-18T02:12:09.101Z,4.40
2023-04-18T02:14:36.343Z,4.35
2023-04-18T02:17:03.015Z,4.36
2023-04-18T02:19:30.532Z,4.35
2023-04-18T02:21:57.146Z,4.34
2023-04-18T02:24:23.768Z,4.24
2023-04-18T02:26:50.537Z,4.16
2023-04-18T02:29:17.152Z,4.14
2023-04-18T02:31:43.872Z,4.14
2023-04-18T02:34:10.818Z,4.15
2023-04-18T02:36:37.490Z,4.13
2023-04-18T02:39:04.095Z,4.12
2023-04-18T02:41:31.254Z,4.11
2023-04-18T02:43:59.060Z,4.09
2023-04-18T02:46:25.733Z,4.09
2023-04-18T02:48:52.464Z,4.10
2023-04-18T02:51:20.118Z,4.08
2023-04-18T02:53:46.801Z,4.07
2023-04-18T02:56:17.178Z,4.05
2023-04-18T02:58:43.812Z,4.01
2023-04-18T03:01:10.624Z,4.02
2023-04-18T03:03:37.300Z,3.95
2023-04-18T03:06:04.118Z,3.88
2023-04-18T03:08:30.807Z,3.84
2023-04-18T03:10:57.471Z,3.83
2023-04-18T03:13:24.385Z,3.80
2023-04-18T03:15:51.420Z,3.76
2023-04-18T03:18:18.176Z,3.75
2023-04-18T03:20:44.777Z,3.75
2023-04-18T03:23:11.418Z,3.78
2023-04-18T03:25:38.168Z,3.82
2023-04-18T03:28:05.001Z,3.84
2023-04-18T03:30:31.774Z,3.80
2023-04-18T03:32:59.566Z,3.82
2023-04-18T03:35:26.270Z,3.80
2023-04-18T03:37:52.914Z,3.80
2023-04-18T03:40:19.592Z,3.78
2023-04-18T03:42:46.251Z,3.75
2023-04-18T03:45:12.909Z,3.72
2023-04-18T03:47:39.663Z,3.72
2023-04-18T03:50:06.773Z,3.70
2023-04-18T03:52:33.393Z,3.66
2023-04-18T03:55:00.060Z,3.62
2023-04-18T03:57:26.688Z,3.61
2023-04-18T03:59:54.700Z,3.62
2023-04-18T04:02:21.350Z,3.63
2023-04-18T04:04:48.507Z,3.68
2023-04-18T04:07:15.141Z,3.67
2023-04-18T04:09:41.779Z,3.73
2023-04-18T04:12:08.449Z,3.78
2023-04-18T04:14:35.071Z,3.79
2023-04-18T04:17:01.802Z,3.82
2023-04-18T04:19:28.497Z,3.86
2023-04-18T04:21:55.137Z,3.87
2023-04-18T04:24:22.741Z,3.89
2023-04-18T04:26:50.821Z,3.92
2023-04-18T04:29:17.925Z,3.96
2023-04-18T04:31:44.708Z,3.99
2023-04-18T04:34:11.534Z,4.04
2023-04-18T04:36:38.360Z,4.11
2023-04-18T04:39:05.334Z,4.13
2023-04-18T04:41:32.086Z,4.18
2023-04-18T04:43:59.653Z,4.25
2023-04-18T04:46:29.433Z,4.33
2023-04-18T04:48:56.561Z,4.37
2023-04-18T04:51:23.340Z,4.43
2023-04-18T04:53:49.958Z,4.45
2023-04-18T04:56:16.602Z,4.48
2023-04-18T04:58:43.341Z,4.52
2023-04-18T05:01:10.003Z,4.58
2023-04-18T05:03:36.970Z,4.60
2023-04-18T05:06:03.921Z,4.61
2023-04-18T05:08:30.557Z,4.65
2023-04-18T05:10:57.185Z,4.66
2023-04-18T05:13:23.814Z,4.69
2023-04-18T05:15:51.991Z,4.74
2023-04-18T05:18:18.781Z,4.77
2023-04-18T05:20:45.491Z,4.80
2023-04-18T05:23:12.179Z,4.84
2023-04-18T05:25:38.872Z,4.90
2023-04-18T05:28:05.578Z,4.97
2023-04-18T05:30:32.219Z,5.04
2023-04-18T05:32:58.869Z,5.11
2023-04-18T05:35:25.759Z,5.16
2023-04-18T05:37:52.423Z,5.22
2023-04-18T05:40:19.031Z,5.28
2023-04-18T05:42:45.687Z,5.33
2023-04-18T05:45:12.415Z,5.40
2023-04-18T05:47:39.054Z,5.45
2023-04-18T05:50:06.701Z,5.52
2023-04-18T05:52:33.511Z,5.59
2023-04-18T05:55:00.244Z,5.67
2023-04-18T05:57:26.924Z,5.73
2023-04-18T05:59:53.573Z,5.77
2023-04-18T06:02:20.248Z,5.81
2023-04-18T06:04:47.171Z,5.87
2023-04-18T06:07:14.137Z,5.91
2023-04-18T06:09:40.822Z,5.97
2023-04-18T06:12:07.533Z,6.02
2023-04-18T06:14:34.180Z,6.08
2023-04-18T06:17:00.900Z,6.12
2023-04-18T06:19:27.529Z,6.17
2023-04-18T06:21:54.206Z,6.23
2023-04-18T06:24:20.971Z,6.28
2023-04-18T06:26:47.723Z,6.35
2023-04-18T06:29:14.507Z,6.43
2023-04-18T06:31:42.249Z,6.51
2023-04-18T06:34:08.987Z,6.60
2023-04-18T06:36:35.674Z,6.70
2023-04-18T06:39:02.394Z,6.76
2023-04-18T06:41:28.993Z,6.85
2023-04-18T06:44:03.360Z,6.91
2023-04-18T06:46:30.886Z,7.01
2023-04-18T06:48:57.688Z,7.12
2023-04-18T06:51:24.411Z,7.21
2023-04-18T06:53:52.985Z,7.29
2023-04-18T06:56:20.636Z,7.41
2023-04-18T06:58:47.967Z,7.53
2023-04-18T07:01:14.700Z,7.63
2023-04-18T07:03:41.459Z,7.71
2023-04-18T07:06:10.550Z,7.83
2023-04-18T07:08:37.365Z,7.96
2023-04-18T07:11:04.083Z,8.06
2023-04-18T07:13:30.713Z,8.14
2023-04-18T07:15:57.345Z,8.25
2023-04-18T07:18:36.646Z,8.34
2023-04-18T07:21:07.398Z,8.48
2023-04-18T07:23:34.976Z,8.61
2023-04-18T07:26:02.891Z,8.72
2023-04-18T07:28:31.156Z,8.84
2023-04-18T07:30:58.316Z,8.94
2023-04-18T07:33:25.262Z,9.06
2023-04-18T07:35:53.148Z,9.15
2023-04-18T07:38:20.126Z,9.24
2023-04-18T07:40:46.776Z,9.34
2023-04-18T07:43:13.419Z,9.47
2023-04-18T07:45:43.130Z,9.60
2023-04-18T07:48:09.966Z,9.69
2023-04-18T07:50:36.630Z,9.80
2023-04-18T07:53:03.496Z,9.89
2023-04-18T07:55:30.788Z,9.99
2023-04-18T07:57:57.431Z,10.09
2023-04-18T08:00:24.643Z,10.20
2023-04-18T08:02:51.550Z,10.30
2023-04-18T08:05:21.540Z,10.43
2023-04-18T08:07:48.192Z,10.56
2023-04-18T08:10:14.989Z,10.71
2023-04-18T08:12:42.216Z,10.85
2023-04-18T08:15:09.424Z,11.04
2023-04-18T08:17:37.734Z,11.32
2023-04-18T08:20:07.475Z,11.70
2023-04-18T08:22:34.185Z,12.12
2023-04-18T08:25:05.336Z,12.50
2023-04-18T08:27:32.644Z,12.95
2023-04-18T08:29:59.361Z,13.31
2023-04-18T08:32:26.128Z,13.61
2023-04-18T08:34:52.769Z,13.94
2023-04-18T08:37:19.397Z,14.26
2023-04-18T08:39:46.189Z,14.58
2023-04-18T08:42:16.389Z,14.89
2023-04-18T08:44:43.356Z,14.97
2023-04-18T08:47:10.012Z,15.01
2023-04-18T08:49:36.746Z,15.00
2023-04-18T08:52:11.164Z,14.98
2023-04-18T08:54:38.770Z,14.96
2023-04-18T08:57:12.591Z,14.89
2023-04-18T08:59:40.191Z,14.74
2023-04-18T09:02:09.069Z,14.61
2023-04-18T09:04:41.443Z,14.59
2023-04-18T09:07:09.842Z,14.62
2023-04-18T09:09:53.386Z,14.62
2023-04-18T09:12:25.388Z,14.76
2023-04-18T09:14:57.586Z,15.09
2023-04-18T09:17:31.934Z,15.54
2023-04-18T09:19:59.957Z,15.90
2023-04-18T09:22:27.236Z,16.22
2023-04-18T09:24:57.360Z,16.43
2023-04-18T09:27:24.758Z,16.56
2023-04-18T09:29:56.521Z,16.63
2023-04-18T09:32:29.625Z,16.53
2023-04-18T09:35:03.954Z,16.37
2023-04-18T09:37:31.284Z,16.18
2023-04-18T09:39:57.985Z,15.98
2023-04-18T09:42:26.718Z,15.87
2023-04-18T09:45:06.434Z,15.75
2023-04-18T09:47:38.026Z,15.62
2023-04-18T09:50:06.845Z,15.56
2023-04-18T09:52:38.586Z,15.60
2023-04-18T09:55:10.482Z,15.64
2023-04-18T09:57:41.259Z,15.73
2023-04-18T10:00:14.378Z,15.80
2023-04-18T10:03:10.758Z,15.83
2023-04-18T10:05:40.047Z,15.94
2023-04-18T10:08:08.149Z,15.91
2023-04-18T10:10:34.817Z,15.84
2023-04-18T10:13:03.191Z,15.87
2023-04-18T10:15:32.140Z,15.85
2023-04-18T10:18:05.300Z,15.95
2023-04-18T10:20:35.049Z,16.06
2023-04-18T10:23:37.814Z,16.17
2023-04-18T10:26:08.630Z,16.25
2023-04-18T10:28:57.243Z,16.27
2023-04-18T10:31:28.445Z,16.29
2023-04-18T10:34:04.616Z,16.26
2023-04-18T10:36:32.747Z,16.16
2023-04-18T10:39:21.401Z,16.09
2023-04-18T10:41:50.602Z,15.97
2023-04-18T10:44:19.661Z,15.86
2023-04-18T10:46:52.287Z,15.73
2023-04-18T10:49:19.108Z,15.55
2023-04-18T10:51:56.399Z,15.39
2023-04-18T10:54:22.997Z,15.33
2023-04-18T10:56:57.588Z,15.33
2023-04-18T10:59:25.438Z,15.42
2023-04-18T11:02:23.373Z,15.63
2023-04-18T11:04:54.864Z,15.90
2023-04-18T11:07:42.250Z,16.07
2023-04-18T11:10:09.932Z,16.22
2023-04-18T11:12:38.848Z,16.33
2023-04-18T11:15:14.548Z,16.40
2023-04-18T11:17:41.410Z,16.38
2023-04-18T11:20:14.195Z,16.35
2023-04-18T11:22:49.172Z,16.39
2023-04-18T11:25:23.699Z,16.45
2023-04-18T11:27:57.642Z,16.49
2023-04-18T11:30:24.499Z,16.42
2023-04-18T11:32:51.868Z,16.38
2023-04-18T11:35:18.661Z,16.23
2023-04-18T11:37:50.271Z,16.03
2023-04-18T11:40:16.912Z,15.98
2023-04-18T11:42:43.698Z,16.07
2023-04-18T11:45:14.528Z,16.23
2023-04-18T11:47:46.359Z,16.33
2023-04-18T11:50:13.784Z,16.32
2023-04-18T11:52:42.720Z,16.30
2023-04-18T11:55:21.269Z,16.42
2023-04-18T11:57:59.017Z,16.56
2023-04-18T12:00:38.777Z,16.77
2023-04-18T12:03:08.864Z,16.86
2023-04-18T12:05:38.298Z,16.95
2023-04-18T12:08:11.490Z,17.06
2023-04-18T12:10:45.478Z,17.17
2023-04-18T12:13:12.174Z,17.12
2023-04-18T12:15:40.614Z,17.08
2023-04-18T12:18:08.544Z,17.08
2023-04-18T12:20:46.747Z,16.99
2023-04-18T12:23:39.883Z,16.92
2023-04-18T12:26:08.484Z,16.99
2023-04-18T12:28:35.863Z,17.09
2023-04-18T12:31:05.674Z,17.14
2023-04-18T12:33:32.410Z,17.12
2023-04-18T12:35:59.404Z,17.01
2023-04-18T12:38:26.096Z,16.95
2023-04-18T12:40:52.771Z,16.99
2023-04-18T12:43:20.008Z,17.05
2023-04-18T12:45:47.244Z,17.15
2023-04-18T12:48:14.038Z,17.25
2023-04-18T12:50:40.822Z,17.35
2023-04-18T12:53:07.508Z,17.45
2023-04-18T12:55:34.309Z,17.55
2023-04-18T12:58:01.069Z,17.63
2023-04-18T13:00:30.009Z,17.73
2023-04-18T13:02:57.413Z,17.80
2023-04-18T13:05:26.137Z,17.80
2023-04-18T13:07:58.655Z,17.86
2023-04-18T13:10:28.538Z,17.76
2023-04-18T13:12:55.701Z,17.74
2023-04-18T13:15:23.922Z,17.80
2023-04-18T13:17:50.824Z,17.74
2023-04-18T13:20:17.589Z,17.63
2023-04-18T13:22:45.340Z,17.53
2023-04-18T13:25:12.256Z,17.42
2023-04-18T13:27:41.932Z,17.28
2023-04-18T13:30:10.993Z,17.15
2023-04-18T13:32:39.183Z,17.01
2023-04-18T13:35:08.454Z,16.95
2023-04-18T13:37:35.667Z,16.86
2023-04-18T13:40:05.374Z,16.83
2023-04-18T13:42:35.966Z,16.83
2023-04-18T13:45:03.278Z,16.75
2023-04-18T13:47:30.392Z,16.68
2023-04-18T13:49:57.927Z,16.54
2023-04-18T13:52:25.169Z,16.45
2023-04-18T13:54:51.866Z,16.32
2023-04-18T13:57:18.576Z,16.09
2023-04-18T13:59:45.264Z,15.90
2023-04-18T14:02:12.337Z,15.77
2023-04-18T14:04:39.298Z,15.67
2023-04-18T14:07:06.427Z,15.56
2023-04-18T14:09:33.616Z,15.47
2023-04-18T14:12:00.279Z,15.40
2023-04-18T14:14:26.941Z,15.36
2023-04-18T14:16:54.123Z,15.36
2023-04-18T14:19:20.980Z,15.35
2023-04-18T14:21:48.379Z,15.39
2023-04-18T14:24:15.497Z,15.52
2023-04-18T14:26:42.419Z,15.69
2023-04-18T14:29:09.048Z,15.88
2023-04-18T14:31:35.887Z,16.08
2023-04-18T14:34:02.811Z,16.29
2023-04-18T14:36:29.522Z,16.40
2023-04-18T14:38:56.197Z,16.47
2023-04-18T14:41:22.931Z,16.52
2023-04-18T14:43:49.686Z,16.59
2023-04-18T14:46:16.740Z,16.63
2023-04-18T14:48:50.058Z,16.71
2023-04-18T14:51:17.022Z,16.78
2023-04-18T14:53:44.648Z,16.85
2023-04-18T14:56:11.322Z,16.99
2023-04-18T14:58:37.981Z,17.06
2023-04-18T15:01:04.972Z,17.20
2023-04-18T15:03:32.336Z,17.23
2023-04-18T15:05:59.156Z,17.23
2023-04-18T15:08:25.867Z,17.30
2023-04-18T15:10:52.521Z,17.26
2023-04-18T15:13:19.465Z,17.10
2023-04-18T15:15:53.739Z,16.88
2023-04-18T15:18:20.659Z,16.67
2023-04-18T15:20:47.643Z,16.45
2023-04-18T15:23:14.979Z,16.33
2023-04-18T15:25:42.776Z,16.21
2023-04-18T15:28:09.666Z,16.05
2023-04-18T15:30:36.547Z,15.96
2023-04-18T15:33:03.424Z,15.82
2023-04-18T15:35:30.249Z,15.68
2023-04-18T15:37:57.540Z,15.52
2023-04-18T15:40:24.435Z,15.44
2023-04-18T15:42:53.585Z,15.36
2023-04-18T15:45:21.512Z,15.25
2023-04-18T15:47:48.453Z,15.29
2023-04-18T15:50:16.594Z,15.42
2023-04-18T15:52:43.963Z,15.60
2023-04-18T15:55:13.149Z,15.65
2023-04-18T15:57:40.883Z,15.60
2023-04-18T16:00:18.045Z,15.51
2023-04-18T16:02:45.997Z,15.36
2023-04-18T16:05:13.579Z,15.23
2023-04-18T16:07:41.438Z,15.05
2023-04-18T16:10:10.322Z,14.90
2023-04-18T16:12:38.080Z,14.77
2023-04-18T16:15:09.150Z,14.71
2023-04-18T16:17:36.711Z,14.65
2023-04-18T16:20:03.896Z,14.63
2023-04-18T16:22:30.741Z,14.63
2023-04-18T16:24:57.468Z,14.61
2023-04-18T16:27:24.130Z,14.63
2023-04-18T16:29:50.870Z,14.63
2023-04-18T16:32:17.569Z,14.64
2023-04-18T16:34:44.210Z,14.65
2023-04-18T16:37:11.273Z,14.59
2023-04-18T16:39:37.993Z,14.50
2023-04-18T16:42:04.756Z,14.38
2023-04-18T16:44:31.447Z,14.21
2023-04-18T16:46:58.195Z,14.02
2023-04-18T16:49:25.351Z,13.82
2023-04-18T16:51:52.090Z,13.64
2023-04-18T16:54:18.836Z,13.51
2023-04-18T16:56:45.542Z,13.38
2023-04-18T16:59:12.168Z,13.26
2023-04-18T17:01:38.894Z,13.18
2023-04-18T17:04:05.939Z,13.11
2023-04-18T17:06:32.797Z,13.05
2023-04-18T17:08:59.517Z,13.00
2023-04-18T17:11:26.596Z,12.97
2023-04-18T17:13:53.300Z,12.96
2023-04-18T17:16:20.136Z,12.88
2023-04-18T17:18:46.881Z,12.77
2023-04-18T17:21:13.613Z,12.69
2023-04-18T17:23:42.442Z,12.54
2023-04-18T17:26:09.783Z,12.46
2023-04-18T17:28:36.562Z,12.40
2023-04-18T17:31:03.365Z,12.29
2023-04-18T17:33:30.431Z,12.23
2023-04-18T17:35:57.743Z,12.19
2023-04-18T17:38:24.431Z,12.13
2023-04-18T17:41:01.273Z,12.06
2023-04-18T17:43:28.183Z,12.00
2023-04-18T17:45:56.032Z,11.95
2023-04-18T17:48:22.764Z,11.90
2023-04-18T17:50:49.412Z,11.80
2023-04-18T17:53:17.478Z,11.72
2023-04-18T17:55:45.344Z,11.65
2023-04-18T17:58:12.014Z,11.59
2023-04-18T18:00:38.678Z,11.59
2023-04-18T18:03:05.437Z,11.56
2023-04-18T18:05:32.255Z,11.49
2023-04-18T18:08:01.078Z,11.45
2023-04-18T18:10:28.248Z,11.35
2023-04-18T18:12:55.032Z,11.31
2023-04-18T18:15:21.700Z,11.25
2023-04-18T18:17:49.760Z,11.18
2023-04-18T18:20:17.249Z,11.11
2023-04-18T18:22:44.309Z,11.03
2023-04-18T18:25:11.347Z,10.99
2023-04-18T18:27:38.171Z,10.95
2023-04-18T18:30:05.900Z,10.88
2023-04-18T18:32:32.591Z,10.82
2023-04-18T18:34:59.753Z,10.80
2023-04-18T18:37:26.793Z,10.74
2023-04-18T18:39:56.554Z,10.65
2023-04-18T18:42:23.223Z,10.60
2023-04-18T18:44:50.171Z,10.54
2023-04-18T18:47:17.935Z,10.50
2023-04-18T18:49:44.656Z,10.44
2023-04-18T18:52:11.269Z,10.38
2023-04-18T18:54:38.112Z,10.29
2023-04-18T18:57:04.924Z,10.25
2023-04-18T18:59:31.613Z,10.19
2023-04-18T19:01:58.428Z,10.13
2023-04-18T19:04:25.681Z,10.10
2023-04-18T19:06:53.593Z,10.11
2023-04-18T19:09:20.289Z,10.08
2023-04-18T19:11:46.991Z,10.04
2023-04-18T19:14:13.859Z,9.99
2023-04-18T19:16:40.637Z,9.93
2023-04-18T19:19:07.666Z,9.87
2023-04-18T19:21:34.303Z,9.81
2023-04-18T19:24:00.951Z,9.73
2023-04-18T19:26:27.625Z,9.67
2023-04-18T19:28:54.631Z,9.59
2023-04-18T19:31:21.651Z,9.54
2023-04-18T19:33:48.308Z,9.45
2023-04-18T19:36:15.232Z,9.41
2023-04-18T19:38:41.964Z,9.37
2023-04-18T19:41:08.596Z,9.37
2023-04-18T19:43:35.551Z,9.30
2023-04-18T19:46:02.262Z,9.28
2023-04-18T19:48:29.019Z,9.16
2023-04-18T19:50:56.834Z,9.09
2023-04-18T19:53:23.916Z,9.04
2023-04-18T19:55:50.716Z,8.94
2023-04-18T19:58:45.285Z,8.94
2023-04-18T20:01:13.357Z,8.88
2023-04-18T20:03:40.550Z,8.84
2023-04-18T20:06:07.753Z,8.80
2023-04-18T20:08:36.469Z,8.69
2023-04-18T20:11:07.043Z,8.63
2023-04-18T20:13:34.667Z,8.55
2023-04-18T20:16:01.321Z,8.53
2023-04-18T20:18:30.269Z,8.50
2023-04-18T20:20:57.028Z,8.42
2023-04-18T20:23:24.145Z,8.37
2023-04-18T20:25:50.931Z,8.31
2023-04-18T20:28:17.868Z,8.22
2023-04-18T20:30:44.867Z,8.21
2023-04-18T20:33:11.543Z,8.15
2023-04-18T20:35:38.178Z,8.08
2023-04-18T20:38:06.639Z,8.03
2023-04-18T20:40:34.254Z,7.98
2023-04-18T20:43:03.019Z,8.00
2023-04-18T20:45:30.189Z,7.98
2023-04-18T20:47:58.757Z,7.96
2023-04-18T20:50:25.461Z,7.89
2023-04-18T20:52:52.091Z,7.84
2023-04-18T20:55:18.703Z,7.80
2023-04-18T20:57:45.604Z,7.76
2023-04-18T21:00:13.975Z,7.70
2023-04-18T21:02:41.747Z,7.69
2023-04-18T21:05:08.960Z,7.69
2023-04-18T21:07:36.451Z,7.63
2023-04-18T21:10:04.045Z,7.58
2023-04-18T21:12:30.725Z,7.53
2023-04-18T21:14:57.569Z,7.51
2023-04-18T21:17:25.557Z,7.47
2023-04-18T21:19:52.571Z,7.39
2023-04-18T21:22:19.239Z,7.32
2023-04-18T21:24:47.018Z,7.24
2023-04-18T21:27:15.889Z,7.19
2023-04-18T21:29:42.509Z,7.15
2023-04-18T21:32:09.173Z,7.08
2023-04-18T21:34:35.840Z,7.01
2023-04-18T21:37:02.537Z,6.95
2023-04-18T21:39:29.186Z,6.91
2023-04-18T21:41:55.814Z,6.92
2023-04-18T21:44:22.607Z,6.91
2023-04-18T21:46:49.225Z,6.94
2023-04-18T21:49:16.087Z,6.86
2023-04-18T21:51:42.817Z,6.86
2023-04-18T21:54:09.442Z,6.84
2023-04-18T21:56:36.109Z,6.79
2023-04-18T21:59:02.717Z,6.77
2023-04-18T22:01:29.406Z,6.75
2023-04-18T22:03:56.372Z,6.70
2023-04-18T22:06:23.362Z,6.65
2023-04-18T22:08:51.666Z,6.61
2023-04-18T22:11:19.042Z,6.55
2023-04-18T22:13:45.983Z,6.52
2023-04-18T22:16:12.684Z,6.49
2023-04-18T22:18:39.407Z,6.48
2023-04-18T22:21:06.802Z,6.44
2023-04-18T22:23:33.541Z,6.43
2023-04-18T22:26:00.379Z,6.43
2023-04-18T22:28:30.008Z,6.37
2023-04-18T22:30:56.703Z,6.34
2023-04-18T22:33:23.751Z,6.35
2023-04-18T22:35:50.601Z,6.29
2023-04-18T22:38:17.393Z,6.26
2023-04-18T22:40:44.038Z,6.26
2023-04-18T22:43:10.765Z,6.30
2023-04-18T22:45:37.429Z,6.28
2023-04-18T22:48:04.385Z,6.25
2023-04-18T22:50:31.028Z,6.21
2023-04-18T22:52:57.664Z,6.17
2023-04-18T22:55:24.358Z,6.14
2023-04-18T22:57:51.082Z,6.09
2023-04-18T23:00:17.856Z,6.10
2023-04-18T23:02:44.608Z,6.06
2023-04-18T23:05:11.861Z,6.01
2023-04-18T23:07:38.570Z,6.00
2023-04-18T23:10:07.042Z,5.93
2023-04-18T23:12:33.674Z,5.88
2023-04-18T23:15:00.354Z,5.83
2023-04-18T23:17:27.047Z,5.77
2023-04-18T23:19:53.692Z,5.75
2023-04-18T23:22:21.351Z,5.70
2023-04-18T23:24:48.007Z,5.68
2023-04-18T23:27:15.656Z,5.63
2023-04-18T23:29:42.683Z,5.65
2023-04-18T23:32:09.300Z,5.64
2023-04-18T23:34:35.910Z,5.64
2023-04-18T23:37:02.533Z,5.61
2023-04-18T23:39:29.234Z,5.58
2023-04-18T23:41:56.315Z,5.55
2023-04-18T23:44:23.268Z,5.55
2023-04-18T23:46:50.061Z,5.50
2023-04-18T23:49:16.952Z,5.46
2023-04-18T23:51:43.574Z,5.43
2023-04-18T23:54:10.926Z,5.43
2023-04-18T23:56:37.557Z,5.43
2023-04-18T23:59:04.204Z,5.42
